sensor_id;sensor_type;location;lat;lon;timestamp;P1;durP1;ratioP1;P2;durP2;ratioP2
3865;SDS011;1948;53.250;10.412;2022-09-02T00:00:03;8.63;;;1.50;;
3865;SDS011;1948;53.250;10.412;2022-09-02T00:02:33;4.23;;;1.67;;
3865;SDS011;1948;53.250;10.412;2022-09-02T00:05:03;2.60;;;1.60;;
3865;SDS011;1948;53.250;10.412;2022-09-02T00:07:31;4.03;;;1.70;;
3865;SDS011;1948;53.250;10.412;2022-09-02T00:09:58;1.27;;;1.27;;
3865;SDS011;1948;53.250;10.412;2022-09-02T00:12:28;1.70;;;1.70;;
3865;SDS011;1948;53.250;10.412;2022-09-02T00:14:55;2.20;;;1.60;;
3865;SDS011;1948;53.250;10.412;2022-09-02T00:17:22;2.60;;;1.30;;
3865;SDS011;1948;53.250;10.412;2022-09-02T00:19:51;1.70;;;1.60;;
3865;SDS011;1948;53.250;10.412;2022-09-02T00:22:21;2.10;;;1.60;;
3865;SDS011;1948;53.250;10.412;2022-09-02T00:24:49;1.30;;;1.30;;
3865;SDS011;1948;53.250;10.412;2022-09-02T00:27:16;1.70;;;1.60;;
3865;SDS011;1948;53.250;10.412;2022-09-02T00:29:43;2.07;;;1.97;;
3865;SDS011;1948;53.250;10.412;2022-09-02T00:32:13;5.80;;;1.30;;
3865;SDS011;1948;53.250;10.412;2022-09-02T00:34:40;3.27;;;1.60;;
3865;SDS011;1948;53.250;10.412;2022-09-02T00:37:07;3.27;;;1.20;;
3865;SDS011;1948;53.250;10.412;2022-09-02T00:39:38;3.90;;;1.40;;
3865;SDS011;1948;53.250;10.412;2022-09-02T00:42:08;9.63;;;1.30;;
3865;SDS011;1948;53.250;10.412;2022-09-02T00:44:38;3.80;;;1.80;;
3865;SDS011;1948;53.250;10.412;2022-09-02T00:47:09;3.87;;;1.60;;
3865;SDS011;1948;53.250;10.412;2022-09-02T00:49:41;3.70;;;1.67;;
3865;SDS011;1948;53.250;10.412;2022-09-02T00:52:21;1.10;;;1.10;;
3865;SDS011;1948;53.250;10.412;2022-09-02T00:54:58;20.93;;;1.40;;
3865;SDS011;1948;53.250;10.412;2022-09-02T00:57:36;1.50;;;1.50;;
3865;SDS011;1948;53.250;10.412;2022-09-02T01:00:12;1.30;;;1.30;;
3865;SDS011;1948;53.250;10.412;2022-09-02T01:02:48;1.93;;;1.70;;
3865;SDS011;1948;53.250;10.412;2022-09-02T01:05:22;1.27;;;1.27;;
3865;SDS011;1948;53.250;10.412;2022-09-02T01:07:52;1.83;;;1.83;;
3865;SDS011;1948;53.250;10.412;2022-09-02T01:10:21;5.70;;;2.20;;
3865;SDS011;1948;53.250;10.412;2022-09-02T01:13:06;13.00;;;1.90;;
3865;SDS011;1948;53.250;10.412;2022-09-02T01:15:39;1.80;;;1.70;;
3865;SDS011;1948;53.250;10.412;2022-09-02T01:18:12;2.00;;;1.80;;
3865;SDS011;1948;53.250;10.412;2022-09-02T01:20:46;3.20;;;1.90;;
3865;SDS011;1948;53.250;10.412;2022-09-02T01:23:14;3.60;;;1.87;;
3865;SDS011;1948;53.250;10.412;2022-09-02T01:25:43;2.23;;;2.13;;
3865;SDS011;1948;53.250;10.412;2022-09-02T01:28:12;1.90;;;1.90;;
3865;SDS011;1948;53.250;10.412;2022-09-02T01:30:47;3.77;;;1.80;;
3865;SDS011;1948;53.250;10.412;2022-09-02T01:33:19;3.50;;;1.70;;
3865;SDS011;1948;53.250;10.412;2022-09-02T01:35:50;2.93;;;1.50;;
3865;SDS011;1948;53.250;10.412;2022-09-02T01:38:19;3.77;;;1.70;;
3865;SDS011;1948;53.250;10.412;2022-09-02T01:40:47;1.77;;;1.67;;
3865;SDS011;1948;53.250;10.412;2022-09-02T01:43:16;1.63;;;1.50;;
3865;SDS011;1948;53.250;10.412;2022-09-02T01:45:48;1.93;;;1.30;;
3865;SDS011;1948;53.250;10.412;2022-09-02T01:48:18;1.67;;;1.57;;
3865;SDS011;1948;53.250;10.412;2022-09-02T01:50:50;1.50;;;1.40;;
3865;SDS011;1948;53.250;10.412;2022-09-02T01:53:21;1.53;;;1.50;;
3865;SDS011;1948;53.250;10.412;2022-09-02T01:55:51;5.20;;;1.40;;
3865;SDS011;1948;53.250;10.412;2022-09-02T01:58:21;1.50;;;1.40;;
3865;SDS011;1948;53.250;10.412;2022-09-02T02:00:48;1.93;;;1.83;;
3865;SDS011;1948;53.250;10.412;2022-09-02T02:03:16;4.40;;;1.60;;
3865;SDS011;1948;53.250;10.412;2022-09-02T02:05:43;3.23;;;1.63;;
3865;SDS011;1948;53.250;10.412;2022-09-02T02:08:10;1.67;;;1.67;;
3865;SDS011;1948;53.250;10.412;2022-09-02T02:10:40;2.23;;;1.60;;
3865;SDS011;1948;53.250;10.412;2022-09-02T02:13:08;1.80;;;1.47;;
3865;SDS011;1948;53.250;10.412;2022-09-02T02:15:40;1.33;;;1.33;;
3865;SDS011;1948;53.250;10.412;2022-09-02T02:18:13;2.00;;;1.90;;
3865;SDS011;1948;53.250;10.412;2022-09-02T02:20:40;2.87;;;1.50;;
3865;SDS011;1948;53.250;10.412;2022-09-02T02:23:10;1.80;;;1.70;;
3865;SDS011;1948;53.250;10.412;2022-09-02T02:25:37;3.60;;;1.60;;
3865;SDS011;1948;53.250;10.412;2022-09-02T02:28:06;1.73;;;1.73;;
3865;SDS011;1948;53.250;10.412;2022-09-02T02:30:33;1.43;;;1.43;;
3865;SDS011;1948;53.250;10.412;2022-09-02T02:33:00;3.63;;;1.50;;
3865;SDS011;1948;53.250;10.412;2022-09-02T02:35:27;1.50;;;1.50;;
3865;SDS011;1948;53.250;10.412;2022-09-02T02:37:55;1.60;;;1.60;;
3865;SDS011;1948;53.250;10.412;2022-09-02T02:40:28;7.57;;;2.00;;
3865;SDS011;1948;53.250;10.412;2022-09-02T02:42:55;1.70;;;1.70;;
3865;SDS011;1948;53.250;10.412;2022-09-02T02:45:25;1.90;;;1.90;;
3865;SDS011;1948;53.250;10.412;2022-09-02T02:47:54;2.00;;;1.90;;
3865;SDS011;1948;53.250;10.412;2022-09-02T02:50:24;3.37;;;2.13;;
3865;SDS011;1948;53.250;10.412;2022-09-02T02:52:51;1.80;;;1.80;;
3865;SDS011;1948;53.250;10.412;2022-09-02T02:55:22;1.70;;;1.70;;
3865;SDS011;1948;53.250;10.412;2022-09-02T02:57:52;1.90;;;1.80;;
3865;SDS011;1948;53.250;10.412;2022-09-02T03:00:20;1.80;;;1.63;;
3865;SDS011;1948;53.250;10.412;2022-09-02T03:03:01;2.73;;;1.80;;
3865;SDS011;1948;53.250;10.412;2022-09-02T03:05:32;3.33;;;1.90;;
3865;SDS011;1948;53.250;10.412;2022-09-02T03:08:01;5.70;;;2.60;;
3865;SDS011;1948;53.250;10.412;2022-09-02T03:10:28;2.00;;;1.90;;
3865;SDS011;1948;53.250;10.412;2022-09-02T03:13:03;4.53;;;1.80;;
3865;SDS011;1948;53.250;10.412;2022-09-02T03:15:35;1.70;;;1.60;;
3865;SDS011;1948;53.250;10.412;2022-09-02T03:18:04;2.10;;;1.70;;
3865;SDS011;1948;53.250;10.412;2022-09-02T03:20:34;6.57;;;2.10;;
3865;SDS011;1948;53.250;10.412;2022-09-02T03:23:01;3.80;;;1.80;;
3865;SDS011;1948;53.250;10.412;2022-09-02T03:25:32;5.20;;;2.07;;
3865;SDS011;1948;53.250;10.412;2022-09-02T03:28:01;2.37;;;2.27;;
3865;SDS011;1948;53.250;10.412;2022-09-02T03:30:29;2.17;;;1.97;;
3865;SDS011;1948;53.250;10.412;2022-09-02T03:33:01;2.63;;;2.23;;
3865;SDS011;1948;53.250;10.412;2022-09-02T03:35:31;2.50;;;2.40;;
3865;SDS011;1948;53.250;10.412;2022-09-02T03:38:06;2.23;;;2.23;;
3865;SDS011;1948;53.250;10.412;2022-09-02T03:40:34;9.60;;;1.87;;
3865;SDS011;1948;53.250;10.412;2022-09-02T03:43:05;3.47;;;2.40;;
3865;SDS011;1948;53.250;10.412;2022-09-02T03:45:32;2.63;;;2.43;;
3865;SDS011;1948;53.250;10.412;2022-09-02T03:47:59;3.07;;;2.37;;
3865;SDS011;1948;53.250;10.412;2022-09-02T03:50:27;2.30;;;2.20;;
3865;SDS011;1948;53.250;10.412;2022-09-02T03:53:02;2.87;;;2.67;;
3865;SDS011;1948;53.250;10.412;2022-09-02T03:55:29;2.00;;;2.00;;
3865;SDS011;1948;53.250;10.412;2022-09-02T03:57:57;2.00;;;2.00;;
3865;SDS011;1948;53.250;10.412;2022-09-02T04:00:25;6.03;;;1.87;;
3865;SDS011;1948;53.250;10.412;2022-09-02T04:02:57;3.13;;;2.47;;
3865;SDS011;1948;53.250;10.412;2022-09-02T04:05:26;2.30;;;1.87;;
3865;SDS011;1948;53.250;10.412;2022-09-02T04:07:56;2.03;;;2.03;;
3865;SDS011;1948;53.250;10.412;2022-09-02T04:10:24;3.90;;;2.60;;
3865;SDS011;1948;53.250;10.412;2022-09-02T04:12:51;8.37;;;2.47;;
3865;SDS011;1948;53.250;10.412;2022-09-02T04:15:19;8.73;;;2.37;;
3865;SDS011;1948;53.250;10.412;2022-09-02T04:17:46;3.33;;;2.10;;
3865;SDS011;1948;53.250;10.412;2022-09-02T04:20:13;3.90;;;2.33;;
3865;SDS011;1948;53.250;10.412;2022-09-02T04:22:43;2.57;;;2.47;;
3865;SDS011;1948;53.250;10.412;2022-09-02T04:25:10;9.30;;;3.50;;
3865;SDS011;1948;53.250;10.412;2022-09-02T04:27:40;2.93;;;2.83;;
3865;SDS011;1948;53.250;10.412;2022-09-02T04:30:07;12.50;;;3.60;;
3865;SDS011;1948;53.250;10.412;2022-09-02T04:32:42;3.67;;;2.60;;
3865;SDS011;1948;53.250;10.412;2022-09-02T04:35:12;4.83;;;2.50;;
3865;SDS011;1948;53.250;10.412;2022-09-02T04:37:39;1.80;;;1.80;;
3865;SDS011;1948;53.250;10.412;2022-09-02T04:40:06;3.60;;;2.43;;
3865;SDS011;1948;53.250;10.412;2022-09-02T04:42:34;3.47;;;3.17;;
3865;SDS011;1948;53.250;10.412;2022-09-02T04:45:01;2.50;;;2.30;;
3865;SDS011;1948;53.250;10.412;2022-09-02T04:47:28;16.73;;;2.70;;
3865;SDS011;1948;53.250;10.412;2022-09-02T04:49:57;3.80;;;2.33;;
3865;SDS011;1948;53.250;10.412;2022-09-02T04:52:28;2.47;;;2.20;;
3865;SDS011;1948;53.250;10.412;2022-09-02T04:54:55;2.50;;;2.50;;
3865;SDS011;1948;53.250;10.412;2022-09-02T04:57:22;2.30;;;2.00;;
3865;SDS011;1948;53.250;10.412;2022-09-02T04:59:52;10.03;;;2.90;;
3865;SDS011;1948;53.250;10.412;2022-09-02T05:02:19;2.83;;;2.50;;
3865;SDS011;1948;53.250;10.412;2022-09-02T05:04:46;3.10;;;2.23;;
3865;SDS011;1948;53.250;10.412;2022-09-02T05:07:13;4.83;;;3.00;;
3865;SDS011;1948;53.250;10.412;2022-09-02T05:09:44;2.80;;;2.60;;
3865;SDS011;1948;53.250;10.412;2022-09-02T05:12:15;3.03;;;2.23;;
3865;SDS011;1948;53.250;10.412;2022-09-02T05:14:43;2.93;;;2.73;;
3865;SDS011;1948;53.250;10.412;2022-09-02T05:17:10;5.07;;;2.57;;
3865;SDS011;1948;53.250;10.412;2022-09-02T05:19:37;2.53;;;2.43;;
3865;SDS011;1948;53.250;10.412;2022-09-02T05:22:06;2.27;;;2.17;;
3865;SDS011;1948;53.250;10.412;2022-09-02T05:24:33;2.93;;;2.13;;
3865;SDS011;1948;53.250;10.412;2022-09-02T05:27:02;4.87;;;2.90;;
3865;SDS011;1948;53.250;10.412;2022-09-02T05:29:29;2.67;;;2.60;;
3865;SDS011;1948;53.250;10.412;2022-09-02T05:31:56;8.43;;;2.60;;
3865;SDS011;1948;53.250;10.412;2022-09-02T05:34:23;5.47;;;2.70;;
3865;SDS011;1948;53.250;10.412;2022-09-02T05:36:50;8.07;;;2.90;;
3865;SDS011;1948;53.250;10.412;2022-09-02T05:39:17;8.80;;;3.77;;
3865;SDS011;1948;53.250;10.412;2022-09-02T05:41:44;3.80;;;2.67;;
3865;SDS011;1948;53.250;10.412;2022-09-02T05:44:12;3.10;;;2.60;;
3865;SDS011;1948;53.250;10.412;2022-09-02T05:46:39;4.20;;;2.43;;
3865;SDS011;1948;53.250;10.412;2022-09-02T05:49:09;2.50;;;2.30;;
3865;SDS011;1948;53.250;10.412;2022-09-02T05:51:46;3.70;;;2.30;;
3865;SDS011;1948;53.250;10.412;2022-09-02T05:54:22;4.73;;;2.70;;
3865;SDS011;1948;53.250;10.412;2022-09-02T05:57:04;2.90;;;2.73;;
3865;SDS011;1948;53.250;10.412;2022-09-02T05:59:41;3.90;;;2.40;;
3865;SDS011;1948;53.250;10.412;2022-09-02T06:02:09;2.80;;;2.60;;
3865;SDS011;1948;53.250;10.412;2022-09-02T06:04:39;5.87;;;4.30;;
3865;SDS011;1948;53.250;10.412;2022-09-02T06:07:12;11.23;;;7.03;;
3865;SDS011;1948;53.250;10.412;2022-09-02T06:09:41;14.03;;;5.73;;
3865;SDS011;1948;53.250;10.412;2022-09-02T06:12:10;21.60;;;6.80;;
3865;SDS011;1948;53.250;10.412;2022-09-02T06:14:38;13.53;;;4.50;;
3865;SDS011;1948;53.250;10.412;2022-09-02T06:17:09;5.17;;;4.50;;
3865;SDS011;1948;53.250;10.412;2022-09-02T06:19:38;7.07;;;4.40;;
3865;SDS011;1948;53.250;10.412;2022-09-02T06:22:08;4.73;;;4.30;;
3865;SDS011;1948;53.250;10.412;2022-09-02T06:24:36;4.13;;;4.03;;
3865;SDS011;1948;53.250;10.412;2022-09-02T06:27:03;4.90;;;4.50;;
3865;SDS011;1948;53.250;10.412;2022-09-02T06:29:32;4.33;;;3.97;;
3865;SDS011;1948;53.250;10.412;2022-09-02T06:32:00;9.90;;;4.07;;
3865;SDS011;1948;53.250;10.412;2022-09-02T06:34:27;3.20;;;3.00;;
3865;SDS011;1948;53.250;10.412;2022-09-02T06:36:56;7.10;;;2.83;;
3865;SDS011;1948;53.250;10.412;2022-09-02T06:39:24;3.23;;;2.83;;
3865;SDS011;1948;53.250;10.412;2022-09-02T06:41:53;5.47;;;2.60;;
3865;SDS011;1948;53.250;10.412;2022-09-02T06:44:21;3.97;;;3.67;;
3865;SDS011;1948;53.250;10.412;2022-09-02T06:46:55;4.50;;;2.93;;
3865;SDS011;1948;53.250;10.412;2022-09-02T06:49:25;5.23;;;3.70;;
3865;SDS011;1948;53.250;10.412;2022-09-02T06:51:54;8.43;;;3.47;;
3865;SDS011;1948;53.250;10.412;2022-09-02T06:54:22;2.33;;;2.23;;
3865;SDS011;1948;53.250;10.412;2022-09-02T06:56:50;1.77;;;1.77;;
3865;SDS011;1948;53.250;10.412;2022-09-02T06:59:18;8.90;;;2.40;;
3865;SDS011;1948;53.250;10.412;2022-09-02T07:01:46;6.23;;;2.20;;
3865;SDS011;1948;53.250;10.412;2022-09-02T07:04:15;7.27;;;2.20;;
3865;SDS011;1948;53.250;10.412;2022-09-02T07:07:02;2.53;;;2.00;;
3865;SDS011;1948;53.250;10.412;2022-09-02T07:09:31;2.60;;;2.50;;
3865;SDS011;1948;53.250;10.412;2022-09-02T07:12:03;6.77;;;2.23;;
3865;SDS011;1948;53.250;10.412;2022-09-02T07:14:34;3.67;;;1.90;;
3865;SDS011;1948;53.250;10.412;2022-09-02T07:17:07;2.67;;;2.47;;
3865;SDS011;1948;53.250;10.412;2022-09-02T07:19:37;7.63;;;2.40;;
3865;SDS011;1948;53.250;10.412;2022-09-02T07:22:04;3.90;;;1.40;;
3865;SDS011;1948;53.250;10.412;2022-09-02T07:24:32;3.70;;;2.00;;
3865;SDS011;1948;53.250;10.412;2022-09-02T07:26:59;2.43;;;2.17;;
3865;SDS011;1948;53.250;10.412;2022-09-02T07:29:26;12.00;;;2.10;;
3865;SDS011;1948;53.250;10.412;2022-09-02T07:31:56;1.80;;;1.70;;
3865;SDS011;1948;53.250;10.412;2022-09-02T07:34:24;1.53;;;1.53;;
3865;SDS011;1948;53.250;10.412;2022-09-02T07:36:57;2.17;;;1.10;;
3865;SDS011;1948;53.250;10.412;2022-09-02T07:39:33;7.60;;;1.60;;
3865;SDS011;1948;53.250;10.412;2022-09-02T07:42:00;2.00;;;1.80;;
3865;SDS011;1948;53.250;10.412;2022-09-02T07:44:28;1.60;;;1.60;;
3865;SDS011;1948;53.250;10.412;2022-09-02T07:46:55;1.30;;;1.30;;
3865;SDS011;1948;53.250;10.412;2022-09-02T07:49:24;3.30;;;1.10;;
3865;SDS011;1948;53.250;10.412;2022-09-02T07:51:52;6.10;;;1.43;;
3865;SDS011;1948;53.250;10.412;2022-09-02T07:54:23;1.53;;;1.43;;
3865;SDS011;1948;53.250;10.412;2022-09-02T07:56:52;10.23;;;1.70;;
3865;SDS011;1948;53.250;10.412;2022-09-02T07:59:19;14.77;;;1.20;;
3865;SDS011;1948;53.250;10.412;2022-09-02T08:01:47;3.70;;;1.40;;
3865;SDS011;1948;53.250;10.412;2022-09-02T08:04:15;6.20;;;1.87;;
3865;SDS011;1948;53.250;10.412;2022-09-02T08:06:46;1.70;;;1.60;;
3865;SDS011;1948;53.250;10.412;2022-09-02T08:09:17;1.60;;;1.50;;
3865;SDS011;1948;53.250;10.412;2022-09-02T08:11:45;3.10;;;1.30;;
3865;SDS011;1948;53.250;10.412;2022-09-02T08:14:17;6.13;;;1.30;;
3865;SDS011;1948;53.250;10.412;2022-09-02T08:16:51;5.50;;;1.30;;
3865;SDS011;1948;53.250;10.412;2022-09-02T08:19:19;1.30;;;1.30;;
3865;SDS011;1948;53.250;10.412;2022-09-02T08:21:47;4.40;;;1.30;;
3865;SDS011;1948;53.250;10.412;2022-09-02T08:24:15;3.20;;;1.53;;
3865;SDS011;1948;53.250;10.412;2022-09-02T08:26:42;1.60;;;1.60;;
3865;SDS011;1948;53.250;10.412;2022-09-02T08:29:14;5.23;;;1.43;;
3865;SDS011;1948;53.250;10.412;2022-09-02T08:31:41;2.80;;;1.27;;
3865;SDS011;1948;53.250;10.412;2022-09-02T08:34:08;1.73;;;1.30;;
3865;SDS011;1948;53.250;10.412;2022-09-02T08:36:35;6.23;;;1.40;;
3865;SDS011;1948;53.250;10.412;2022-09-02T08:39:21;4.33;;;1.03;;
3865;SDS011;1948;53.250;10.412;2022-09-02T08:42:02;2.87;;;1.30;;
3865;SDS011;1948;53.250;10.412;2022-09-02T08:44:35;1.03;;;1.03;;
3865;SDS011;1948;53.250;10.412;2022-09-02T08:47:04;1.30;;;1.17;;
3865;SDS011;1948;53.250;10.412;2022-09-02T08:49:39;1.10;;;1.10;;
3865;SDS011;1948;53.250;10.412;2022-09-02T08:52:15;1.03;;;1.03;;
3865;SDS011;1948;53.250;10.412;2022-09-02T08:55:18;1.43;;;1.13;;
3865;SDS011;1948;53.250;10.412;2022-09-02T08:57:54;1.03;;;1.03;;
3865;SDS011;1948;53.250;10.412;2022-09-02T09:00:22;2.67;;;1.03;;
3865;SDS011;1948;53.250;10.412;2022-09-02T09:03:03;1.23;;;1.10;;
3865;SDS011;1948;53.250;10.412;2022-09-02T09:06:07;10.90;;;1.17;;
3865;SDS011;1948;53.250;10.412;2022-09-02T09:08:55;1.77;;;1.77;;
3865;SDS011;1948;53.250;10.412;2022-09-02T09:11:43;1.47;;;1.20;;
3865;SDS011;1948;53.250;10.412;2022-09-02T09:14:26;1.10;;;1.00;;
3865;SDS011;1948;53.250;10.412;2022-09-02T09:17:27;6.77;;;0.97;;
3865;SDS011;1948;53.250;10.412;2022-09-02T09:20:08;2.10;;;1.17;;
3865;SDS011;1948;53.250;10.412;2022-09-02T09:26:10;1.20;;;1.20;;
3865;SDS011;1948;53.250;10.412;2022-09-02T09:28:46;1.80;;;1.00;;
3865;SDS011;1948;53.250;10.412;2022-09-02T09:31:17;3.07;;;1.20;;
3865;SDS011;1948;53.250;10.412;2022-09-02T09:33:57;4.30;;;1.27;;
3865;SDS011;1948;53.250;10.412;2022-09-02T09:36:47;1.20;;;1.20;;
3865;SDS011;1948;53.250;10.412;2022-09-02T09:39:29;1.10;;;1.10;;
3865;SDS011;1948;53.250;10.412;2022-09-02T09:42:00;0.87;;;0.87;;
3865;SDS011;1948;53.250;10.412;2022-09-02T09:49:48;2.73;;;1.10;;
3865;SDS011;1948;53.250;10.412;2022-09-02T09:52:27;5.60;;;1.27;;
3865;SDS011;1948;53.250;10.412;2022-09-02T09:57:52;4.40;;;1.27;;
3865;SDS011;1948;53.250;10.412;2022-09-02T10:00:36;2.80;;;1.23;;
3865;SDS011;1948;53.250;10.412;2022-09-02T10:03:07;3.53;;;2.03;;
3865;SDS011;1948;53.250;10.412;2022-09-02T10:05:46;1.50;;;1.50;;
3865;SDS011;1948;53.250;10.412;2022-09-02T10:11:00;1.47;;;1.47;;
3865;SDS011;1948;53.250;10.412;2022-09-02T10:13:34;1.40;;;1.30;;
3865;SDS011;1948;53.250;10.412;2022-09-02T10:18:56;3.37;;;1.20;;
3865;SDS011;1948;53.250;10.412;2022-09-02T10:27:19;1.40;;;1.00;;
3865;SDS011;1948;53.250;10.412;2022-09-02T10:30:25;6.30;;;1.10;;
3865;SDS011;1948;53.250;10.412;2022-09-02T10:36:37;2.20;;;1.10;;
3865;SDS011;1948;53.250;10.412;2022-09-02T10:42:17;8.33;;;0.90;;
3865;SDS011;1948;53.250;10.412;2022-09-02T10:51:40;2.10;;;1.13;;
3865;SDS011;1948;53.250;10.412;2022-09-02T10:57:16;1.37;;;1.30;;
3865;SDS011;1948;53.250;10.412;2022-09-02T11:00:01;1.23;;;1.17;;
3865;SDS011;1948;53.250;10.412;2022-09-02T11:02:46;2.67;;;1.00;;
3865;SDS011;1948;53.250;10.412;2022-09-02T11:05:50;14.27;;;1.20;;
3865;SDS011;1948;53.250;10.412;2022-09-02T11:08:56;2.70;;;1.20;;
3865;SDS011;1948;53.250;10.412;2022-09-02T11:23:34;2.30;;;1.20;;
3865;SDS011;1948;53.250;10.412;2022-09-02T11:26:24;4.90;;;1.50;;
3865;SDS011;1948;53.250;10.412;2022-09-02T11:29:03;2.13;;;1.20;;
3865;SDS011;1948;53.250;10.412;2022-09-02T11:31:49;2.17;;;1.60;;
3865;SDS011;1948;53.250;10.412;2022-09-02T11:34:47;1.30;;;1.20;;
3865;SDS011;1948;53.250;10.412;2022-09-02T11:37:27;1.40;;;1.30;;
3865;SDS011;1948;53.250;10.412;2022-09-02T11:40:19;1.23;;;1.13;;
3865;SDS011;1948;53.250;10.412;2022-09-02T11:43:03;3.37;;;1.13;;
3865;SDS011;1948;53.250;10.412;2022-09-02T11:55:05;1.67;;;1.47;;
3865;SDS011;1948;53.250;10.412;2022-09-02T11:57:42;1.00;;;1.00;;
3865;SDS011;1948;53.250;10.412;2022-09-02T12:00:28;1.30;;;1.20;;
3865;SDS011;1948;53.250;10.412;2022-09-02T12:06:03;8.53;;;1.20;;
3865;SDS011;1948;53.250;10.412;2022-09-02T12:11:08;3.13;;;1.00;;
3865;SDS011;1948;53.250;10.412;2022-09-02T12:14:05;1.40;;;1.40;;
3865;SDS011;1948;53.250;10.412;2022-09-02T12:16:41;3.23;;;1.13;;
3865;SDS011;1948;53.250;10.412;2022-09-02T12:22:20;1.30;;;1.20;;
3865;SDS011;1948;53.250;10.412;2022-09-02T12:24:56;5.23;;;1.60;;
3865;SDS011;1948;53.250;10.412;2022-09-02T12:27:35;2.77;;;1.47;;
3865;SDS011;1948;53.250;10.412;2022-09-02T12:30:06;1.00;;;1.00;;
3865;SDS011;1948;53.250;10.412;2022-09-02T12:38:38;4.50;;;1.40;;
3865;SDS011;1948;53.250;10.412;2022-09-02T12:57:51;1.30;;;1.30;;
3865;SDS011;1948;53.250;10.412;2022-09-02T13:10:23;3.27;;;1.40;;
3865;SDS011;1948;53.250;10.412;2022-09-02T13:21:38;6.33;;;1.70;;
3865;SDS011;1948;53.250;10.412;2022-09-02T13:24:48;13.53;;;1.80;;
3865;SDS011;1948;53.250;10.412;2022-09-02T13:33:40;1.43;;;1.33;;
3865;SDS011;1948;53.250;10.412;2022-09-02T13:36:08;2.20;;;2.10;;
3865;SDS011;1948;53.250;10.412;2022-09-02T13:38:37;3.00;;;2.37;;
3865;SDS011;1948;53.250;10.412;2022-09-02T13:41:04;3.27;;;1.80;;
3865;SDS011;1948;53.250;10.412;2022-09-02T13:43:34;4.93;;;1.40;;
3865;SDS011;1948;53.250;10.412;2022-09-02T13:46:01;2.43;;;1.87;;
3865;SDS011;1948;53.250;10.412;2022-09-02T13:48:30;1.63;;;1.53;;
3865;SDS011;1948;53.250;10.412;2022-09-02T13:51:08;3.33;;;1.20;;
3865;SDS011;1948;53.250;10.412;2022-09-02T13:53:40;9.70;;;1.60;;
3865;SDS011;1948;53.250;10.412;2022-09-02T13:56:32;10.83;;;2.00;;
3865;SDS011;1948;53.250;10.412;2022-09-02T13:59:00;1.10;;;1.10;;
3865;SDS011;1948;53.250;10.412;2022-09-02T14:04:04;3.93;;;1.30;;
3865;SDS011;1948;53.250;10.412;2022-09-02T14:06:37;3.43;;;1.50;;
3865;SDS011;1948;53.250;10.412;2022-09-02T14:09:10;6.17;;;1.33;;
3865;SDS011;1948;53.250;10.412;2022-09-02T14:11:46;3.17;;;1.50;;
3865;SDS011;1948;53.250;10.412;2022-09-02T14:14:14;1.37;;;1.27;;
3865;SDS011;1948;53.250;10.412;2022-09-02T14:16:45;5.80;;;1.73;;
3865;SDS011;1948;53.250;10.412;2022-09-02T14:24:15;1.30;;;1.30;;
3865;SDS011;1948;53.250;10.412;2022-09-02T14:26:50;1.80;;;1.43;;
3865;SDS011;1948;53.250;10.412;2022-09-02T14:29:22;5.57;;;1.27;;
3865;SDS011;1948;53.250;10.412;2022-09-02T14:34:49;1.33;;;1.33;;
3865;SDS011;1948;53.250;10.412;2022-09-02T14:37:46;2.40;;;1.20;;
3865;SDS011;1948;53.250;10.412;2022-09-02T14:40:34;3.20;;;1.13;;
3865;SDS011;1948;53.250;10.412;2022-09-02T14:43:12;1.80;;;0.93;;
3865;SDS011;1948;53.250;10.412;2022-09-02T14:45:42;2.63;;;1.03;;
3865;SDS011;1948;53.250;10.412;2022-09-02T14:48:35;4.80;;;1.47;;
3865;SDS011;1948;53.250;10.412;2022-09-02T14:51:05;8.90;;;1.50;;
3865;SDS011;1948;53.250;10.412;2022-09-02T14:53:33;1.73;;;1.40;;
3865;SDS011;1948;53.250;10.412;2022-09-02T14:56:11;2.53;;;1.57;;
3865;SDS011;1948;53.250;10.412;2022-09-02T14:58:38;9.37;;;3.00;;
3865;SDS011;1948;53.250;10.412;2022-09-02T15:01:04;3.13;;;1.73;;
3865;SDS011;1948;53.250;10.412;2022-09-02T15:03:35;3.43;;;1.20;;
3865;SDS011;1948;53.250;10.412;2022-09-02T15:06:03;1.43;;;1.43;;
3865;SDS011;1948;53.250;10.412;2022-09-02T15:08:31;1.80;;;1.67;;
3865;SDS011;1948;53.250;10.412;2022-09-02T15:10:58;1.40;;;1.33;;
3865;SDS011;1948;53.250;10.412;2022-09-02T15:13:33;1.90;;;1.60;;
3865;SDS011;1948;53.250;10.412;2022-09-02T15:16:00;1.60;;;1.50;;
3865;SDS011;1948;53.250;10.412;2022-09-02T15:18:29;1.30;;;1.30;;
3865;SDS011;1948;53.250;10.412;2022-09-02T15:20:56;7.90;;;1.37;;
3865;SDS011;1948;53.250;10.412;2022-09-02T15:23:26;3.00;;;1.40;;
3865;SDS011;1948;53.250;10.412;2022-09-02T15:25:59;1.60;;;1.60;;
3865;SDS011;1948;53.250;10.412;2022-09-02T15:28:27;2.17;;;1.43;;
3865;SDS011;1948;53.250;10.412;2022-09-02T15:30:56;6.63;;;1.40;;
3865;SDS011;1948;53.250;10.412;2022-09-02T15:33:27;1.97;;;1.40;;
3865;SDS011;1948;53.250;10.412;2022-09-02T15:36:00;2.30;;;1.53;;
3865;SDS011;1948;53.250;10.412;2022-09-02T15:38:34;3.03;;;1.83;;
3865;SDS011;1948;53.250;10.412;2022-09-02T15:41:19;6.47;;;1.27;;
3865;SDS011;1948;53.250;10.412;2022-09-02T15:43:52;5.23;;;1.53;;
3865;SDS011;1948;53.250;10.412;2022-09-02T15:48:50;1.20;;;1.20;;
3865;SDS011;1948;53.250;10.412;2022-09-02T15:51:26;9.30;;;1.83;;
3865;SDS011;1948;53.250;10.412;2022-09-02T15:53:56;1.00;;;0.90;;
3865;SDS011;1948;53.250;10.412;2022-09-02T15:56:29;1.70;;;1.70;;
3865;SDS011;1948;53.250;10.412;2022-09-02T15:59:00;13.77;;;2.10;;
3865;SDS011;1948;53.250;10.412;2022-09-02T16:01:35;1.43;;;1.43;;
3865;SDS011;1948;53.250;10.412;2022-09-02T16:04:12;3.30;;;2.33;;
3865;SDS011;1948;53.250;10.412;2022-09-02T16:06:40;21.73;;;2.03;;
3865;SDS011;1948;53.250;10.412;2022-09-02T16:09:11;4.13;;;1.40;;
3865;SDS011;1948;53.250;10.412;2022-09-02T16:11:43;3.83;;;1.23;;
3865;SDS011;1948;53.250;10.412;2022-09-02T16:14:14;4.40;;;1.40;;
3865;SDS011;1948;53.250;10.412;2022-09-02T16:16:46;1.77;;;1.67;;
3865;SDS011;1948;53.250;10.412;2022-09-02T16:19:17;2.10;;;1.43;;
3865;SDS011;1948;53.250;10.412;2022-09-02T16:21:55;1.93;;;1.70;;
3865;SDS011;1948;53.250;10.412;2022-09-02T16:24:22;1.37;;;1.17;;
3865;SDS011;1948;53.250;10.412;2022-09-02T16:26:52;4.33;;;1.30;;
3865;SDS011;1948;53.250;10.412;2022-09-02T16:29:19;1.40;;;1.40;;
3865;SDS011;1948;53.250;10.412;2022-09-02T16:31:46;5.00;;;1.43;;
3865;SDS011;1948;53.250;10.412;2022-09-02T16:34:35;1.87;;;1.77;;
3865;SDS011;1948;53.250;10.412;2022-09-02T16:37:02;3.87;;;1.20;;
3865;SDS011;1948;53.250;10.412;2022-09-02T16:39:31;1.23;;;1.20;;
3865;SDS011;1948;53.250;10.412;2022-09-02T16:41:58;6.97;;;1.60;;
3865;SDS011;1948;53.250;10.412;2022-09-02T16:44:29;4.43;;;1.23;;
3865;SDS011;1948;53.250;10.412;2022-09-02T16:47:01;1.60;;;1.60;;
3865;SDS011;1948;53.250;10.412;2022-09-02T16:49:31;3.40;;;1.70;;
3865;SDS011;1948;53.250;10.412;2022-09-02T16:52:00;2.10;;;1.73;;
3865;SDS011;1948;53.250;10.412;2022-09-02T16:54:29;4.83;;;1.83;;
3865;SDS011;1948;53.250;10.412;2022-09-02T16:57:05;4.73;;;1.80;;
3865;SDS011;1948;53.250;10.412;2022-09-02T16:59:32;1.40;;;1.40;;
3865;SDS011;1948;53.250;10.412;2022-09-02T17:01:59;4.43;;;1.10;;
3865;SDS011;1948;53.250;10.412;2022-09-02T17:04:29;11.97;;;1.30;;
3865;SDS011;1948;53.250;10.412;2022-09-02T17:06:56;2.07;;;2.00;;
3865;SDS011;1948;53.250;10.412;2022-09-02T17:09:25;12.63;;;1.37;;
3865;SDS011;1948;53.250;10.412;2022-09-02T17:11:52;1.10;;;1.10;;
3865;SDS011;1948;53.250;10.412;2022-09-02T17:14:23;3.33;;;1.60;;
3865;SDS011;1948;53.250;10.412;2022-09-02T17:16:50;1.50;;;1.50;;
3865;SDS011;1948;53.250;10.412;2022-09-02T17:19:20;1.67;;;1.57;;
3865;SDS011;1948;53.250;10.412;2022-09-02T17:21:51;1.33;;;1.23;;
3865;SDS011;1948;53.250;10.412;2022-09-02T17:24:20;10.60;;;1.40;;
3865;SDS011;1948;53.250;10.412;2022-09-02T17:26:51;3.70;;;1.30;;
3865;SDS011;1948;53.250;10.412;2022-09-02T17:29:22;4.00;;;1.50;;
3865;SDS011;1948;53.250;10.412;2022-09-02T17:32:14;1.17;;;1.17;;
3865;SDS011;1948;53.250;10.412;2022-09-02T17:34:42;1.40;;;1.30;;
3865;SDS011;1948;53.250;10.412;2022-09-02T17:37:09;1.27;;;1.10;;
3865;SDS011;1948;53.250;10.412;2022-09-02T17:39:36;1.40;;;1.30;;